Latest Weather Observations for Maryborough

IDQ60801

Issued at 7:52 am EST Tuesday 27 October 2020 (issued every 10 minutes, with the page automatically refreshed every 10 minutes)

About weather observations | Map of weather stations | Latest weather observations for QLD | Other Formats
Station Details ID: 040126 Name: MARYBOROUGH Lat: -25.51 Lon: 152.72 Height: 8.98 m
Data from the previous 72 hours. | See also: Recent months at Maryborough
Date/Time
EST
Temp
°C
App
Temp
°C
Dew
Point
°C
Rel
Hum
%
Delta-T
°C
Wind Press
QNH
hPa
Press
MSL
hPa
Rain since
9am
mm
Dir  Spd
km/h
Gust
km/h
Spd
kts
Gust
kts
27/07:30am 24.2 28.0 22.8 92 0.9 NE 7 11 4 6 1014.4 1014.3 0.8
27/07:28am 24.2 28.3 23.0 93 0.8 NE 6 9 3 5 1014.4 1014.3 0.8
27/07:18am 24.0 28.9 23.1 95 0.6 ENE 2 7 1 4 1014.3 1014.2 0.8
27/07:00am 23.6 27.8 23.1 97 0.3 E 6 7 3 4 1014.0 1013.9 0.8
27/06:30am 22.9 26.3 22.7 99 0.1 SE 9 11 5 6 1013.5 1013.4 0.8
27/06:16am 22.8 26.7 22.6 99 0.1 ESE 6 7 3 4 1013.3 1013.2 0.8
27/06:00am 22.5 27.0 22.3 99 0.1 SE 2 6 1 3 1013.3 1013.2 0.8
27/05:30am 22.3 25.8 22.1 99 0.1 SE 7 9 4 5 1012.8 1012.7 0.8
27/05:19am 22.2 25.8 22.0 99 0.1 SE 6 9 3 5 1012.7 1012.6 0.8
27/05:08am 22.1 26.8 21.9 99 0.1 CALM 0 7 0 4 1012.6 1012.5 0.8
27/05:00am 22.1 26.0 21.9 99 0.1 SE 4 9 2 5 1012.4 1012.3 0.8
27/04:30am 22.2 26.2 22.0 99 0.1 SE 4 11 2 6 1012.1 1012.0 0.8
27/04:12am 22.2 26.9 21.9 98 0.2 CALM 0 0 0 0 1012.3 1012.2 0.8
27/04:00am 22.2 26.5 21.9 98 0.2 ESE 2 6 1 3 1012.0 1011.9 0.8
27/03:51am 22.2 25.7 21.9 98 0.2 ESE 6 7 3 4 1012.0 1011.9 0.8
27/03:30am 22.3 25.9 22.0 98 0.2 ESE 6 7 3 4 1011.9 1011.8 0.8
27/03:00am 22.4 26.1 22.2 99 0.1 SSE 6 7 3 4 1011.7 1011.6 0.8
27/02:39am 22.2 25.2 22.0 99 0.1 S 9 13 5 7 1011.6 1011.5 0.8
27/02:30am 22.1 26.3 21.8 98 0.2 E 2 11 1 6 1011.7 1011.6 0.8
27/02:17am 22.1 25.6 21.8 98 0.2 ENE 6 9 3 5 1011.5 1011.4 0.8
27/02:00am 22.3 26.3 22.1 99 0.1 SE 4 6 2 3 1011.8 1011.7 0.8
27/01:49am 22.3 25.9 22.1 99 0.1 SSE 6 7 3 4 1011.7 1011.6 0.8
27/01:34am 22.2 25.8 22.0 99 0.1 SE 6 7 3 4 1012.0 1011.9 0.8
27/01:30am 22.1 25.6 21.9 99 0.1 SE 6 7 3 4 1012.1 1012.0 0.8
27/01:00am 22.1 25.4 21.9 99 0.1 SE 7 7 4 4 1012.0 1011.9 0.8
27/12:30am 21.6 25.9 21.1 97 0.3 CALM 0 0 0 0 1012.3 1012.2 0.8
27/12:26am 21.5 25.6 20.8 96 0.5 CALM 0 0 0 0 1012.4 1012.3 0.8
27/12:17am 21.5 25.6 20.8 96 0.5 CALM 0 0 0 0 1012.3 1012.2 0.8
27/12:00am 22.0 25.8 21.7 98 0.2 SE 4 9 2 5 1012.4 1012.3 0.8
 
Date/Time
EST
Temp
°C
App
Temp
°C
Dew
Point
°C
Rel
Hum
%
Delta-T
°C
Wind Press
QNH
hPa
Press
MSL
hPa
Rain since
9am
mm
Dir  Spd
km/h
Gust
km/h
Spd
kts
Gust
kts
26/11:30pm 22.0 26.5 21.5 97 0.3 CALM 0 0 0 0 1012.8 1012.7 0.8
26/11:24pm 22.0 26.5 21.5 97 0.3 CALM 0 0 0 0 1012.9 1012.8 0.8
26/11:00pm 22.1 26.6 21.6 97 0.3 CALM 0 0 0 0 1012.8 1012.7 0.8
26/10:30pm 22.0 26.1 20.8 93 0.8 CALM 0 4 0 2 1012.9 1012.8 0.8
26/10:00pm 22.5 26.8 21.1 92 0.9 CALM 0 7 0 4 1013.0 1012.9 0.8
26/09:30pm 22.6 25.5 21.8 95 0.5 N 9 13 5 7 1013.0 1012.9 0.8
26/09:00pm 22.3 26.2 21.1 93 0.8 NE 2 7 1 4 1012.9 1012.8 0.8
26/08:30pm 22.2 25.0 20.8 92 0.9 N 7 11 4 6 1012.7 1012.6 0.8
26/08:00pm 22.5 25.4 20.6 89 1.2 NNE 6 9 3 5 1012.4 1012.3 0.8
26/07:30pm 22.9 25.1 20.4 86 1.6 N 9 11 5 6 1011.9 1011.8 0.8
26/07:00pm 23.3 25.4 20.2 83 2.0 N 9 13 5 7 1011.8 1011.7 0.8
26/06:30pm 23.7 25.2 19.8 79 2.5 N 11 15 6 8 1011.1 1011.0 0.8
26/06:00pm 24.5 25.0 19.3 73 3.3 N 15 20 8 11 1010.9 1010.8 0.8
26/05:30pm 25.3 26.1 19.0 68 4.0 N 13 22 7 12 1010.3 1010.2 0.8
26/05:00pm 26.3 26.4 19.2 65 4.6 N 17 24 9 13 1009.8 1009.7 0.8
26/04:30pm 26.5 27.1 18.6 62 5.0 N 13 20 7 11 1009.4 1009.3 0.8
26/04:00pm 27.1 26.6 18.7 60 5.4 NNW 19 26 10 14 1009.1 1009.0 0.8
26/03:30pm 26.5 27.2 19.6 66 4.5 N 15 20 8 11 1009.0 1008.9 0.6
26/03:00pm 26.4 26.3 19.5 66 4.5 N 19 32 10 17 1009.3 1009.2 0.6
26/02:30pm 25.5 25.4 18.7 66 4.3 N 17 28 9 15 1009.1 1009.0 0.6
26/02:00pm 25.5 25.4 18.7 66 4.3 N 17 24 9 13 1009.2 1009.1 0.6
26/01:30pm 25.3 27.0 20.1 73 3.4 N 11 22 6 12 1009.3 1009.2 0.6
26/01:00pm 24.1 26.0 20.6 81 2.3 N 11 20 6 11 1009.4 1009.3 0.6
26/12:30pm 28.3 28.8 19.2 57 5.9 N 15 22 8 12 1009.4 1009.3 0.0
26/12:00pm 29.3 30.6 20.2 58 6.0 NNE 13 22 7 12 1009.7 1009.6 0.0
26/11:30am 29.3 29.8 18.4 51 7.0 N 13 20 7 11 1010.2 1010.1 0.0
26/11:00am 30.3 29.8 17.7 46 8.0 NW 17 26 9 14 1010.6 1010.5 0.0
26/10:30am 29.2 28.5 18.3 51 7.0 WNW 19 26 10 14 1011.0 1010.9 0.0
26/10:00am 28.3 28.6 19.5 59 5.7 WNW 17 24 9 13 1011.4 1011.3 0.0
26/09:30am 27.1 26.7 19.4 62 5.0 NW 20 24 11 13 1011.7 1011.6 0.0
26/09:00am 27.8 28.7 20.9 66 4.6 NNW 17 26 9 14 1011.6 1011.5 25.0
26/08:30am 26.5 28.0 20.6 70 3.9 NNW 13 20 7 11 1011.6 1011.5 25.0
26/08:00am 25.1 26.3 19.9 73 3.4 NW 13 19 7 10 1011.7 1011.6 25.0
26/07:50am 25.6 27.0 21.1 76 3.0 NNW 15 20 8 11 1011.7 1011.6 25.0
26/07:30am 24.7 26.1 21.0 80 2.4 NNW 15 20 8 11 1011.8 1011.7 25.0
26/07:00am 23.9 26.2 21.4 86 1.6 NW 11 17 6 9 1011.8 1011.7 25.0
26/06:47am 23.5 25.7 21.2 87 1.5 WNW 11 17 6 9 1011.7 1011.6 25.0
26/06:30am 23.1 26.1 21.9 93 0.8 NW 9 13 5 7 1011.5 1011.4 25.0
26/06:08am 22.4 25.9 22.2 99 0.1 NNW 7 13 4 7 1011.2 1011.1 25.0
26/06:00am 21.7 25.4 21.5 99 0.1 NNE 4 7 2 4 1011.1 1011.0 25.0
26/05:42am 21.2 25.4 20.9 98 0.2 CALM 0 2 0 1 1011.0 1010.9 25.0
26/05:38am 21.4 25.3 21.1 98 0.2 W 2 6 1 3 1010.9 1010.8 25.0
26/05:30am 21.8 25.9 21.6 99 0.1 W 2 6 1 3 1010.8 1010.7 25.0
26/05:00am 21.4 24.9 21.1 98 0.2 W 4 7 2 4 1010.6 1010.5 25.0
26/04:57am 21.6 24.9 21.4 99 0.1 W 6 7 3 4 1010.6 1010.5 25.0
26/04:52am 21.5 24.7 21.2 98 0.2 WNW 6 7 3 4 1010.5 1010.4 25.0
26/04:40am 21.2 24.4 20.4 95 0.5 NW 4 7 2 4 1010.4 1010.3 25.0
26/04:34am 21.2 25.1 20.4 95 0.5 CALM 0 6 0 3 1010.4 1010.3 25.0
26/04:30am 21.4 25.4 20.6 95 0.5 CALM 0 6 0 3 1010.4 1010.3 25.0
26/04:19am 21.7 25.6 21.2 97 0.3 WSW 2 7 1 4 1010.3 1010.2 25.0
26/04:08am 21.6 25.7 20.8 95 0.5 CALM 0 0 0 0 1010.3 1010.2 25.0
26/04:00am 21.6 25.7 20.8 95 0.5 CALM 0 0 0 0 1010.2 1010.1 25.0
26/03:30am 21.8 24.0 20.4 92 0.9 SW 9 11 5 6 1010.0 1009.9 25.0
26/03:00am 22.6 25.9 21.8 95 0.5 NW 7 11 4 6 1009.9 1009.8 25.0
26/02:30am 22.6 25.6 21.9 96 0.5 NNW 9 15 5 8 1009.5 1009.4 25.0
26/02:00am 22.1 25.6 21.9 99 0.1 N 6 9 3 5 1009.5 1009.4 25.0
26/01:51am 21.7 25.4 21.4 98 0.2 N 4 7 2 4 1009.4 1009.3 25.0
26/01:35am 21.6 25.4 20.9 96 0.5 NNW 2 9 1 5 1009.7 1009.6 25.0
26/01:30am 21.6 25.5 21.1 97 0.3 NNW 2 9 1 5 1009.7 1009.6 25.0
26/01:01am 22.3 24.8 21.8 97 0.3 NNW 11 19 6 10 1010.3 1010.2 25.0
26/01:00am 22.3 25.3 22.0 98 0.2 NNW 9 19 5 10 1010.3 1010.2 25.0
26/12:30am 21.5 24.7 21.3 99 0.1 NNW 6 9 3 5 1010.7 1010.6 25.0
26/12:08am 21.7 25.0 21.5 99 0.1 NNE 6 9 3 5 1010.8 1010.7 25.0
26/12:00am 21.5 24.7 21.3 99 0.1 NE 6 9 3 5 1010.8 1010.7 25.0
 
Date/Time
EST
Temp
°C
App
Temp
°C
Dew
Point
°C
Rel
Hum
%
Delta-T
°C
Wind Press
QNH
hPa
Press
MSL
hPa
Rain since
9am
mm
Dir  Spd
km/h
Gust
km/h
Spd
kts
Gust
kts
25/11:53pm 21.4 24.8 20.9 97 0.3 NNE 4 7 2 4 1010.8 1010.7 25.0
25/11:47pm 21.4 25.6 20.9 97 0.3 CALM 0 2 0 1 1011.1 1011.0 25.0
25/11:35pm 21.4 25.5 20.7 96 0.5 CALM 0 0 0 0 1011.3 1011.2 25.0
25/11:30pm 21.4 25.5 20.7 96 0.5 CALM 0 0 0 0 1011.2 1011.1 25.0
25/11:19pm 21.4 25.3 20.4 94 0.6 CALM 0 0 0 0 1011.3 1011.2 25.0
25/11:09pm 21.6 25.1 20.4 93 0.8 N 2 6 1 3 1011.3 1011.2 25.0
25/11:00pm 21.9 24.8 20.7 93 0.8 NNW 6 9 3 5 1011.4 1011.3 25.0
25/10:30pm 22.4 25.1 22.2 99 0.1 WSW 11 17 6 9 1011.9 1011.8 25.0
25/10:00pm 21.4 25.3 21.2 99 0.1 NNE 2 6 1 3 1011.4 1011.3 25.0
25/09:38pm 21.4 25.7 21.2 99 0.1 CALM 0 0 0 0 1011.7 1011.6 25.0
25/09:33pm 21.4 25.3 21.2 99 0.1 NNE 2 6 1 3 1011.5 1011.4 25.0
25/09:30pm 21.4 25.3 21.2 99 0.1 NNE 2 7 1 4 1011.6 1011.5 25.0
25/09:23pm 21.6 25.6 21.4 99 0.1 NNE 2 7 1 4 1011.9 1011.8 25.0
25/09:10pm 21.4 25.7 21.1 98 0.2 CALM 0 2 0 1 1011.4 1011.3 25.0
25/09:00pm 21.1 25.2 20.8 98 0.2 CALM 0 6 0 3 1011.1 1011.0 25.0
25/08:42pm 21.1 25.0 20.4 96 0.5 CALM 0 0 0 0 1011.5 1011.4 25.0
25/08:30pm 21.2 25.3 20.7 97 0.3 CALM 0 0 0 0 1011.5 1011.4 25.0
25/08:00pm 21.6 25.6 21.3 98 0.2 NNE 2 7 1 4 1011.3 1011.2 25.0
25/07:45pm 21.4 24.4 21.2 99 0.1 NNE 7 9 4 5 1011.1 1011.0 25.0
25/07:30pm 21.1 24.7 20.6 97 0.3 NNE 2 7 1 4 1011.2 1011.1 25.0
25/07:29pm 21.0 25.0 20.5 97 0.3 CALM 0 7 0 4 1011.2 1011.1 25.0
25/07:10pm 21.0 24.7 20.0 94 0.6 CALM 0 0 0 0 1011.3 1011.2 25.0
25/07:00pm 21.2 25.0 20.2 94 0.6 CALM 0 0 0 0 1011.1 1011.0 25.0
25/06:33pm 21.1 24.6 19.6 91 1.0 CALM 0 0 0 0 1010.9 1010.8 25.0
25/06:30pm 21.1 24.5 19.4 90 1.1 CALM 0 0 0 0 1010.8 1010.7 25.0
25/06:00pm 22.0 24.4 19.7 87 1.5 NNE 6 9 3 5 1010.4 1010.3 25.0
25/05:30pm 22.8 24.3 19.8 83 1.9 N 11 17 6 9 1010.4 1010.3 25.0
25/05:14pm 22.8 24.5 20.1 85 1.7 N 11 22 6 12 1010.2 1010.1 25.0
25/05:00pm 22.8 23.3 20.0 84 1.8 N 17 28 9 15 1010.1 1010.0 25.0
25/04:30pm 23.3 26.4 22.1 93 0.8 N 9 17 5 9 1009.8 1009.7 25.0
25/04:00pm 21.9 25.1 21.6 98 0.2 ENE 7 11 4 6 1010.0 1009.9 25.0
25/03:54pm 21.7 24.8 21.4 98 0.2 ENE 7 11 4 6 1010.1 1010.0 25.0
25/03:30pm 21.2 24.0 20.9 98 0.2 NE 7 9 4 5 1010.4 1010.3 24.8
25/03:00pm 20.8 23.1 20.6 99 0.1 NE 9 11 5 6 1010.4 1010.3 24.6
25/02:56pm 20.7 22.9 20.5 99 0.1 E 9 11 5 6 1010.3 1010.2 24.6
25/02:30pm 20.1 22.0 19.8 98 0.2 SSW 9 15 5 8 1010.5 1010.4 21.4
25/02:00pm 19.9 20.9 18.6 92 0.8 S 11 20 6 11 1010.3 1010.2 7.8
25/01:55pm 20.4 21.7 18.5 89 1.2 SSE 9 15 5 8 1010.6 1010.5 2.6
25/01:30pm 22.3 22.3 17.2 73 3.1 WSW 13 20 7 11 1010.7 1010.6 0.0
25/01:00pm 25.6 25.8 19.3 68 4.1 N 17 28 9 15 1010.5 1010.4 0.0
25/12:30pm 27.4 26.6 19.2 61 5.3 N 22 33 12 18 1010.5 1010.4 0.0
25/12:00pm 27.3 26.8 19.1 61 5.3 N 20 33 11 18 1010.8 1010.7 0.0
25/11:30am 27.4 25.2 18.7 59 5.6 N 28 39 15 21 1010.9 1010.8 0.0
25/11:00am 28.0 26.9 17.8 54 6.5 N 20 33 11 18 1010.9 1010.8 0.0
25/10:30am 27.7 26.8 17.8 54 6.3 NNE 19 39 10 21 1011.2 1011.1 0.0
25/10:00am 28.9 28.3 19.8 58 6.0 N 22 37 12 20 1011.8 1011.7 0.0
25/09:30am 28.0 27.8 19.8 61 5.3 N 20 32 11 17 1012.0 1011.9 0.0
25/09:00am 28.4 28.3 19.9 60 5.6 N 20 30 11 16 1012.1 1012.0 0.2
25/08:30am 26.8 25.3 18.6 60 5.2 N 24 33 13 18 1012.2 1012.1 0.2
25/08:00am 27.1 26.7 19.4 62 5.0 NNW 20 32 11 17 1012.2 1012.1 0.2
25/07:30am 25.0 24.9 20.0 74 3.2 NNW 20 30 11 16 1012.0 1011.9 0.2
25/07:00am 24.4 24.6 20.1 77 2.8 N 19 32 10 17 1011.8 1011.7 0.2
25/06:30am 23.2 24.4 20.0 82 2.1 N 13 20 7 11 1011.6 1011.5 0.2
25/06:00am 22.8 24.5 20.1 85 1.7 N 11 19 6 10 1011.2 1011.1 0.2
25/05:30am 22.3 24.3 20.0 87 1.5 N 9 17 5 9 1011.0 1010.9 0.2
25/05:00am 22.3 23.8 19.8 86 1.6 N 11 19 6 10 1010.7 1010.6 0.0
25/04:30am 22.4 23.2 19.9 86 1.6 NNW 15 22 8 12 1011.1 1011.0 0.0
25/04:00am 22.5 23.0 20.0 86 1.6 NNW 17 24 9 13 1010.8 1010.7 0.0
25/03:30am 22.6 23.8 19.9 85 1.7 NNW 13 22 7 12 1011.0 1010.9 0.0
25/03:00am 22.3 23.1 19.8 86 1.6 NNW 15 20 8 11 1010.8 1010.7 0.0
25/02:30am 22.5 23.6 19.7 84 1.8 N 13 17 7 9 1010.6 1010.5 0.0
25/02:03am 22.4 23.6 19.8 85 1.7 N 13 19 7 10 1010.7 1010.6 0.0
25/02:00am 22.4 23.9 19.8 85 1.7 N 11 17 6 9 1010.7 1010.6 0.0
25/01:34am 22.1 23.6 19.8 87 1.5 NNW 11 13 6 7 1011.0 1010.9 0.0
25/01:32am 22.1 23.6 19.8 87 1.5 NNW 11 13 6 7 1011.1 1011.0 0.0
25/01:30am 22.2 24.2 19.9 87 1.5 NNW 9 13 5 7 1011.1 1011.0 0.0
25/01:00am 22.3 22.8 20.0 87 1.5 NNW 17 20 9 11 1011.6 1011.5 0.0
25/12:54am 22.2 23.0 19.9 87 1.5 NNW 15 20 8 11 1011.5 1011.4 0.0
25/12:30am 22.1 23.0 20.0 88 1.3 NNW 15 19 8 10 1011.2 1011.1 0.0
25/12:00am 21.9 23.4 19.8 88 1.3 N 11 15 6 8 1011.0 1010.9 0.0
 
Date/Time
EST
Temp
°C
App
Temp
°C
Dew
Point
°C
Rel
Hum
%
Delta-T
°C
Wind Press
QNH
hPa
Press
MSL
hPa
Rain since
9am
mm
Dir  Spd
km/h
Gust
km/h
Spd
kts
Gust
kts
24/11:30pm 22.2 23.8 20.7 91 1.0 N 13 19 7 10 1011.0 1010.9 0.0
24/11:00pm 21.0 23.5 20.2 95 0.5 NNW 7 9 4 5 1011.7 1011.6 0.0
24/10:30pm 20.8 23.4 20.5 98 0.2 N 7 11 4 6 1011.5 1011.4 0.0
24/10:00pm 19.2 22.0 17.9 92 0.8 CALM 0 0 0 0 1011.7 1011.6 0.0
24/09:30pm 19.8 21.7 18.5 92 0.8 N 6 9 3 5 1011.9 1011.8 0.0
24/09:00pm 20.1 22.9 17.9 87 1.4 CALM 0 0 0 0 1012.2 1012.1 0.0
24/08:30pm 20.6 23.0 18.0 85 1.6 NNE 2 6 1 3 1011.7 1011.6 0.0
24/08:00pm 21.2 23.1 18.6 85 1.6 N 6 7 3 4 1011.8 1011.7 0.0
24/07:30pm 21.5 23.4 18.5 83 1.9 WNW 6 7 3 4 1011.8 1011.7 0.0
24/07:00pm 22.0 23.8 18.8 82 2.0 WNW 7 11 4 6 1011.6 1011.5 0.0
24/06:30pm 22.0 25.1 18.6 81 2.1 CALM 0 0 0 0 1011.1 1011.0 0.0
24/06:00pm 21.6 24.6 18.4 82 2.0 CALM 0 0 0 0 1010.9 1010.8 0.0
24/05:30pm 21.5 22.3 18.1 81 2.1 ESE 11 15 6 8 1010.5 1010.4 0.0
24/05:00pm 21.3 21.9 17.7 80 2.2 SSW 11 15 6 8 1010.8 1010.7 0.0
24/04:30pm 21.6 22.5 17.6 78 2.5 S 9 13 5 7 1010.9 1010.8 0.0
24/04:00pm 23.8 23.4 19.3 76 2.9 NNW 20 35 11 19 1011.2 1011.1 0.0
24/03:30pm 24.3 22.6 18.9 72 3.4 N 26 37 14 20 1010.7 1010.6 0.0
24/03:00pm 25.1 24.3 18.5 67 4.2 N 20 30 11 16 1010.2 1010.1 0.0
24/02:30pm 25.7 24.3 17.9 62 4.9 N 22 35 12 19 1010.3 1010.2 0.0
24/02:00pm 26.7 26.0 18.3 60 5.3 N 19 33 10 18 1010.6 1010.5 0.0
24/01:30pm 26.8 26.2 18.4 60 5.3 N 19 33 10 18 1011.0 1010.9 0.0
24/01:00pm 27.0 25.6 18.0 58 5.7 N 22 35 12 19 1011.3 1011.2 0.0
24/12:30pm 27.0 25.5 17.8 57 5.8 N 22 33 12 18 1011.9 1011.8 0.0
24/12:00pm 26.8 25.3 17.8 57 5.7 N 22 32 12 17 1012.2 1012.1 0.0
24/11:30am 26.6 25.5 17.7 58 5.6 N 20 32 11 17 1012.7 1012.6 0.0
24/11:00am 27.5 26.6 18.2 57 5.9 N 20 33 11 18 1012.9 1012.8 0.0
24/10:30am 27.3 26.9 18.0 56 5.9 N 17 28 9 15 1013.3 1013.2 0.0
24/10:00am 27.1 26.5 18.4 59 5.5 NNW 19 28 10 15 1013.6 1013.5 0.0
24/09:30am 23.8 23.8 19.7 78 2.6 NNW 19 33 10 18 1014.0 1013.9 0.0
24/09:00am 24.6 24.5 18.8 70 3.7 N 17 28 9 15 1014.1 1014.0 0.0
24/08:30am 25.0 25.7 18.9 69 3.9 N 13 20 7 11 1014.2 1014.1 0.0
24/08:00am 24.1 25.0 18.5 71 3.5 N 11 20 6 11 1014.3 1014.2 0.0

Other formats

Comma delimited format used in spreadsheet applications
http://www.bom.gov.au/fwo/IDQ60801/IDQ60801.94567.axf

JavaScript Object Notation format (JSON) in row-major order
http://www.bom.gov.au/fwo/IDQ60801/IDQ60801.94567.json

Data quality

Most of these data are generated automatically and are frequently updated. Quality checks on data are not normally performed. It is possible for incorrect values to appear. Refer to information at About Latest Weather Observations and please check the disclaimer before using these data.